createdAt,value
2018-06-01T00:00:59.382Z,12.23
2018-06-01T00:03:27.555Z,8.33
2018-06-01T00:05:55.725Z,9.90
2018-06-01T00:08:23.985Z,12.73
2018-06-01T00:10:54.976Z,14.83
2018-06-01T00:13:23.134Z,8.03
2018-06-01T00:15:51.309Z,11.80
2018-06-01T00:18:19.463Z,11.67
2018-06-01T00:20:47.687Z,13.87
2018-06-01T00:23:16.609Z,9.00
2018-06-01T00:25:45.536Z,9.93
2018-06-01T00:28:13.691Z,7.37
2018-06-01T00:30:41.849Z,11.43
2018-06-01T00:33:10.035Z,9.40
2018-06-01T00:35:38.202Z,13.80
2018-06-01T00:38:07.188Z,8.17
2018-06-01T00:40:36.161Z,11.27
2018-06-01T00:43:05.068Z,6.07
2018-06-01T00:45:34.007Z,9.50
2018-06-01T00:48:02.171Z,15.03
2018-06-01T00:50:30.356Z,10.03
2018-06-01T00:52:58.522Z,8.93
2018-06-01T00:55:26.696Z,8.10
2018-06-01T00:57:55.310Z,9.00
2018-06-01T01:00:23.494Z,10.63
2018-06-01T01:02:51.649Z,19.50
2018-06-01T01:05:19.819Z,9.70
2018-06-01T01:07:47.966Z,7.43
2018-06-01T01:10:16.145Z,8.67
2018-06-01T01:12:44.302Z,10.37
2018-06-01T01:15:12.458Z,7.73
2018-06-01T01:17:40.593Z,12.20
2018-06-01T01:20:08.783Z,13.13
2018-06-01T01:22:36.937Z,11.17
2018-06-01T01:25:06.506Z,10.90
2018-06-01T01:27:34.683Z,12.03
2018-06-01T01:30:02.854Z,10.33
2018-06-01T01:32:31.013Z,10.83
2018-06-01T01:34:59.155Z,14.60
2018-06-01T01:37:32.592Z,8.47
2018-06-01T01:40:00.749Z,12.40
2018-06-01T01:42:28.912Z,9.73
2018-06-01T01:44:57.066Z,7.13
2018-06-01T01:47:26.005Z,8.73
2018-06-01T01:49:54.277Z,9.90
2018-06-01T01:52:22.441Z,8.37
2018-06-01T01:54:50.670Z,6.87
2018-06-01T01:57:19.602Z,8.50
2018-06-01T01:59:47.753Z,8.23
2018-06-01T02:02:15.923Z,8.23
2018-06-01T02:04:44.072Z,8.60
2018-06-01T02:07:13.000Z,8.93
2018-06-01T02:09:41.176Z,14.47
2018-06-01T02:12:09.347Z,13.23
2018-06-01T02:14:37.524Z,13.13
2018-06-01T02:17:05.718Z,10.37
2018-06-01T02:19:34.636Z,7.33
2018-06-01T02:22:02.841Z,12.07
2018-06-01T02:24:31.016Z,9.80
2018-06-01T02:26:59.220Z,8.53
2018-06-01T02:29:27.436Z,7.90
2018-06-01T02:31:55.695Z,11.60
2018-06-01T02:34:23.945Z,13.53
2018-06-01T02:36:52.178Z,9.50
2018-06-01T02:39:21.127Z,6.80
2018-06-01T02:41:49.275Z,12.20
2018-06-01T02:44:17.428Z,11.63
2018-06-01T02:46:45.568Z,6.87
2018-06-01T02:49:13.756Z,11.00
2018-06-01T02:51:42.662Z,8.80
2018-06-01T02:54:10.836Z,7.40
2018-06-01T02:56:38.990Z,9.87
2018-06-01T02:59:07.935Z,12.23
2018-06-01T03:01:36.094Z,11.13
2018-06-01T03:04:04.229Z,9.27
2018-06-01T03:09:39.184Z,8.80
2018-06-01T03:12:07.325Z,8.37
2018-06-01T03:14:35.513Z,11.00
2018-06-01T03:17:04.428Z,10.80
2018-06-01T03:19:32.554Z,9.83
2018-06-01T03:22:00.735Z,11.20
2018-06-01T03:24:28.873Z,11.13
2018-06-01T03:26:57.019Z,9.60
2018-06-01T03:29:25.181Z,11.07
2018-06-01T03:31:54.104Z,11.33
2018-06-01T03:34:22.263Z,13.00
2018-06-01T03:36:50.435Z,12.73
2018-06-01T03:39:18.571Z,7.43
2018-06-01T03:41:46.797Z,11.73
2018-06-01T03:44:14.940Z,12.70
2018-06-01T03:46:43.873Z,10.13
2018-06-01T03:49:12.058Z,15.77
2018-06-01T03:51:40.226Z,9.93
2018-06-01T03:54:08.370Z,20.63
2018-06-01T03:56:36.533Z,8.93
2018-06-01T03:59:04.783Z,12.93
2018-06-01T04:01:33.741Z,11.33
2018-06-01T04:04:01.903Z,9.40
2018-06-01T04:06:30.086Z,10.43
2018-06-01T04:08:58.225Z,6.73
2018-06-01T04:11:26.384Z,13.67
2018-06-01T04:13:54.565Z,13.60
2018-06-01T04:16:22.728Z,25.13
2018-06-01T04:18:50.902Z,13.90
2018-06-01T04:21:19.072Z,15.13
2018-06-01T04:23:47.251Z,14.43
2018-06-01T04:26:15.422Z,11.50
2018-06-01T04:28:43.585Z,12.93
2018-06-01T04:31:12.533Z,13.73
2018-06-01T04:33:40.682Z,14.77
2018-06-01T04:36:08.832Z,9.33
2018-06-01T04:38:36.971Z,9.70
2018-06-01T04:41:05.140Z,14.30
2018-06-01T04:43:33.312Z,11.23
2018-06-01T04:46:01.490Z,16.30
2018-06-01T04:48:29.640Z,15.90
2018-06-01T04:50:57.796Z,10.87
2018-06-01T04:53:25.971Z,8.60
2018-06-01T04:55:54.125Z,8.20
2018-06-01T04:58:22.277Z,11.33
2018-06-01T05:00:51.218Z,9.20
2018-06-01T05:03:19.370Z,12.30
2018-06-01T05:05:47.531Z,9.73
2018-06-01T05:08:15.725Z,16.40
2018-06-01T05:10:43.908Z,11.80
2018-06-01T05:13:12.076Z,8.67
2018-06-01T05:15:40.280Z,10.17
2018-06-01T05:18:08.465Z,14.13
2018-06-01T05:20:37.386Z,9.30
2018-06-01T05:23:06.141Z,9.57
2018-06-01T05:25:34.333Z,10.00
2018-06-01T05:28:03.241Z,12.30
2018-06-01T05:30:31.444Z,11.53
2018-06-01T05:32:59.589Z,7.47
2018-06-01T05:35:27.781Z,14.23
2018-06-01T05:37:55.921Z,18.10
2018-06-01T05:40:24.860Z,9.67
2018-06-01T05:42:53.026Z,7.47
2018-06-01T05:45:21.197Z,9.50
2018-06-01T05:47:49.344Z,9.50
2018-06-01T05:50:17.538Z,9.03
2018-06-01T05:52:45.683Z,9.97
2018-06-01T05:55:14.050Z,12.43
2018-06-01T05:57:42.217Z,11.80
2018-06-01T06:00:10.440Z,14.40
2018-06-01T06:02:38.611Z,9.53
2018-06-01T06:05:06.773Z,11.07
2018-06-01T06:07:34.908Z,12.53
2018-06-01T06:10:03.840Z,10.67
2018-06-01T06:12:31.991Z,13.13
2018-06-01T06:15:00.156Z,9.00
2018-06-01T06:17:28.302Z,10.10
2018-06-01T06:19:56.494Z,9.10
2018-06-01T06:22:25.385Z,10.07
2018-06-01T06:24:54.313Z,11.53
2018-06-01T06:27:22.481Z,9.77
2018-06-01T06:29:50.640Z,9.90
2018-06-01T06:32:18.805Z,10.53
2018-06-01T06:34:46.967Z,11.90
2018-06-01T06:37:15.149Z,13.83
2018-06-01T06:39:43.307Z,10.63
2018-06-01T06:42:12.333Z,15.37
2018-06-01T06:44:40.475Z,10.20
2018-06-01T06:47:08.700Z,13.50
2018-06-01T06:49:36.912Z,8.53
2018-06-01T06:52:05.836Z,11.10
2018-06-01T06:54:33.981Z,11.80
2018-06-01T06:57:02.900Z,7.63
2018-06-01T06:59:31.910Z,9.27
2018-06-01T07:02:00.297Z,25.13
2018-06-01T07:04:29.216Z,9.03
2018-06-01T07:06:57.386Z,13.63
2018-06-01T07:09:25.564Z,13.80
2018-06-01T07:11:54.545Z,13.17
2018-06-01T07:14:23.363Z,10.57
2018-06-01T07:16:52.301Z,14.27
2018-06-01T07:19:20.469Z,12.57
2018-06-01T07:21:48.629Z,12.37
2018-06-01T07:24:16.788Z,10.30
2018-06-01T07:26:44.972Z,17.87
2018-06-01T07:29:13.138Z,8.50
2018-06-01T07:31:41.372Z,11.63
2018-06-01T07:34:09.515Z,8.90
2018-06-01T07:36:37.771Z,9.03
2018-06-01T07:39:05.917Z,7.93
2018-06-01T07:41:34.859Z,7.77
2018-06-01T07:44:03.022Z,8.47
2018-06-01T07:46:31.982Z,11.40
2018-06-01T07:49:00.176Z,10.57
2018-06-01T07:51:28.357Z,10.70
2018-06-01T07:53:56.524Z,9.80
2018-06-01T07:56:24.681Z,13.17
2018-06-01T07:58:52.820Z,9.63
2018-06-01T08:01:21.738Z,7.77
2018-06-01T08:03:49.885Z,12.47
2018-06-01T08:06:18.831Z,8.00
2018-06-01T08:08:46.987Z,9.77
2018-06-01T08:11:15.138Z,15.50
2018-06-01T08:13:43.321Z,11.77
2018-06-01T08:16:11.469Z,10.70
2018-06-01T08:18:41.114Z,10.37
2018-06-01T08:21:09.290Z,10.53
2018-06-01T08:23:38.219Z,14.97
2018-06-01T08:26:06.475Z,12.53
2018-06-01T08:28:34.754Z,10.10
2018-06-01T08:31:02.921Z,11.80
2018-06-01T08:33:31.082Z,10.73
2018-06-01T08:35:59.283Z,11.87
2018-06-01T08:38:27.467Z,8.43
2018-06-01T08:40:55.700Z,8.87
2018-06-01T08:43:23.834Z,9.03
2018-06-01T08:45:52.740Z,10.93
2018-06-01T08:48:20.919Z,10.57
2018-06-01T08:50:49.160Z,7.97
2018-06-01T08:53:18.130Z,9.87
2018-06-01T08:55:46.277Z,16.93
2018-06-01T08:58:14.450Z,10.67
2018-06-01T09:00:42.601Z,9.73
2018-06-01T09:03:10.776Z,13.53
2018-06-01T09:05:39.052Z,8.03
2018-06-01T09:08:07.284Z,9.20
2018-06-01T09:10:35.523Z,8.27
2018-06-01T09:13:03.675Z,8.43
2018-06-01T09:15:31.863Z,11.47
2018-06-01T09:18:00.023Z,13.43
2018-06-01T09:20:28.191Z,11.00
2018-06-01T09:22:56.354Z,13.20
2018-06-01T09:25:24.521Z,11.00
2018-06-01T09:27:53.493Z,10.60
2018-06-01T09:30:22.426Z,9.70
2018-06-01T09:32:50.607Z,10.73
2018-06-01T09:35:19.696Z,6.37
2018-06-01T09:37:47.892Z,12.10
2018-06-01T09:46:56.584Z,11.90
2018-06-01T09:49:24.819Z,12.13
2018-06-01T09:51:53.007Z,12.70
2018-06-01T09:57:35.207Z,8.60
2018-06-01T10:00:03.419Z,9.87
2018-06-01T10:02:31.583Z,9.70
2018-06-01T10:05:00.308Z,11.43
2018-06-01T10:07:28.453Z,13.57
2018-06-01T10:10:02.364Z,10.03
2018-06-01T10:12:30.583Z,13.50
2018-06-01T10:14:58.741Z,10.63
2018-06-01T10:17:26.887Z,9.33
2018-06-01T10:19:55.870Z,15.43
2018-06-01T10:22:24.095Z,12.00
2018-06-01T10:24:52.245Z,6.80
2018-06-01T10:27:20.390Z,9.10
2018-06-01T10:29:48.545Z,10.50
2018-06-01T10:32:16.731Z,10.47
2018-06-01T10:34:44.964Z,14.73
2018-06-01T10:37:13.146Z,11.53
2018-06-01T10:39:41.315Z,10.20
2018-06-01T10:42:10.224Z,9.50
2018-06-01T10:44:38.399Z,17.53
2018-06-01T10:47:06.705Z,9.47
2018-06-01T10:49:35.634Z,10.03
2018-06-01T10:52:03.909Z,9.97
2018-06-01T10:54:32.062Z,8.83
2018-06-01T10:57:01.015Z,6.20
2018-06-01T10:59:29.268Z,16.07
2018-06-01T11:01:57.470Z,11.03
2018-06-01T11:04:25.666Z,10.73
2018-06-01T11:06:53.831Z,8.00
2018-06-01T11:09:22.759Z,9.40
2018-06-01T11:11:51.069Z,8.90
2018-06-01T11:14:19.218Z,9.53
2018-06-01T11:16:47.399Z,11.07
2018-06-01T11:19:15.558Z,10.17
2018-06-01T11:21:43.717Z,16.30
2018-06-01T11:24:11.878Z,9.00
2018-06-01T11:26:40.046Z,10.83
2018-06-01T11:29:08.222Z,9.90
2018-06-01T11:31:36.567Z,13.40
2018-06-01T11:34:05.208Z,8.57
2018-06-01T11:36:33.375Z,7.40
2018-06-01T11:39:01.530Z,11.60
2018-06-01T11:41:29.704Z,20.23
2018-06-01T11:43:58.608Z,11.73
2018-06-01T11:46:26.762Z,7.87
2018-06-01T11:48:55.694Z,10.77
2018-06-01T11:51:24.069Z,10.27
2018-06-01T11:53:52.198Z,9.53
2018-06-01T11:56:21.121Z,9.90
2018-06-01T11:58:49.372Z,10.00
2018-06-01T12:01:17.702Z,10.10
2018-06-01T12:03:45.885Z,11.10
2018-06-01T12:06:14.052Z,8.57
2018-06-01T12:08:42.393Z,10.77
2018-06-01T12:11:10.614Z,10.57
2018-06-01T12:13:38.752Z,10.93
2018-06-01T12:16:06.941Z,11.93
2018-06-01T12:18:35.110Z,12.07
2018-06-01T12:21:03.342Z,9.13
2018-06-01T12:23:31.484Z,19.30
2018-06-01T12:25:59.758Z,21.03
2018-06-01T12:28:27.929Z,11.20
2018-06-01T12:30:56.125Z,16.40
2018-06-01T12:33:24.296Z,17.10
2018-06-01T12:35:53.216Z,11.10
2018-06-01T12:38:21.637Z,14.93
2018-06-01T12:40:49.796Z,11.70
2018-06-01T12:43:18.054Z,11.20
2018-06-01T12:45:46.224Z,14.40
2018-06-01T12:48:14.389Z,12.20
2018-06-01T12:50:43.325Z,12.13
2018-06-01T12:53:11.494Z,9.87
2018-06-01T12:55:39.744Z,11.23
2018-06-01T12:58:07.949Z,10.90
2018-06-01T13:00:36.200Z,8.83
2018-06-01T13:03:04.363Z,9.47
2018-06-01T13:05:32.616Z,14.47
2018-06-01T13:08:00.808Z,11.93
2018-06-01T13:10:29.050Z,8.50
2018-06-01T13:12:57.217Z,15.37
2018-06-01T13:15:25.397Z,11.90
2018-06-01T13:17:53.562Z,16.93
2018-06-01T13:20:21.763Z,14.57
2018-06-01T13:22:49.952Z,14.60
2018-06-01T13:25:18.150Z,11.93
2018-06-01T13:27:46.328Z,11.57
2018-06-01T13:30:14.485Z,9.63
2018-06-01T13:32:42.675Z,15.07
2018-06-01T13:35:10.834Z,10.33
2018-06-01T13:37:39.043Z,8.20
2018-06-01T13:40:08.129Z,10.87
2018-06-01T13:42:36.314Z,9.13
2018-06-01T13:45:05.271Z,13.23
2018-06-01T13:47:33.449Z,11.10
2018-06-01T13:50:01.637Z,10.70
2018-06-01T13:52:30.593Z,11.40
2018-06-01T13:54:59.038Z,20.33
2018-06-01T13:57:28.094Z,11.87
2018-06-01T13:59:56.255Z,12.90
2018-06-01T14:02:24.394Z,16.17
2018-06-01T14:04:52.539Z,16.60
2018-06-01T14:07:20.690Z,10.23
2018-06-01T14:09:48.855Z,16.37
2018-06-01T14:12:17.015Z,13.67
2018-06-01T14:14:45.188Z,10.93
2018-06-01T14:17:13.340Z,12.80
2018-06-01T14:19:41.584Z,15.87
2018-06-01T14:22:16.721Z,7.07
2018-06-01T14:24:44.885Z,8.07
2018-06-01T14:27:13.805Z,18.60
2018-06-01T14:29:41.939Z,9.87
2018-06-01T14:32:10.106Z,20.00
2018-06-01T14:34:38.449Z,9.33
2018-06-01T14:37:06.637Z,12.03
2018-06-01T14:39:34.826Z,10.90
2018-06-01T14:42:04.664Z,7.63
2018-06-01T14:44:32.891Z,12.53
2018-06-01T14:47:01.167Z,8.53
2018-06-01T14:49:29.279Z,10.10
2018-06-01T14:51:57.444Z,8.50
2018-06-01T14:54:25.736Z,13.00
2018-06-01T14:56:53.913Z,7.00
2018-06-01T14:59:22.070Z,10.27
2018-06-01T15:01:50.297Z,8.13
2018-06-01T15:04:18.456Z,8.70
2018-06-01T15:06:47.658Z,10.50
2018-06-01T15:09:15.822Z,9.27
2018-06-01T15:11:43.984Z,9.03
2018-06-01T15:14:12.135Z,10.97
2018-06-01T15:16:40.299Z,9.43
2018-06-01T15:19:09.223Z,13.10
2018-06-01T15:21:37.371Z,20.43
2018-06-01T15:24:05.538Z,9.00
2018-06-01T15:26:34.549Z,7.50
2018-06-01T15:29:02.716Z,10.37
2018-06-01T15:31:30.883Z,12.27
2018-06-01T15:34:00.043Z,12.30
2018-06-01T15:36:28.361Z,8.93
2018-06-01T15:38:56.516Z,10.57
2018-06-01T15:41:24.721Z,9.63
2018-06-01T15:43:52.861Z,11.33
2018-06-01T15:46:21.819Z,11.93
2018-06-01T15:48:49.970Z,11.53
2018-06-01T15:51:19.302Z,11.03
2018-06-01T15:53:47.711Z,9.93
2018-06-01T15:56:15.933Z,8.90
2018-06-01T15:58:44.131Z,11.20
2018-06-01T16:01:12.293Z,12.20
2018-06-01T16:03:40.534Z,11.27
2018-06-01T16:06:09.450Z,10.03
2018-06-01T16:08:37.657Z,11.10
2018-06-01T16:11:06.604Z,9.70
2018-06-01T16:13:34.878Z,9.93
2018-06-01T16:16:03.035Z,10.90
2018-06-01T16:18:31.216Z,10.17
2018-06-01T16:20:59.379Z,11.90
2018-06-01T16:23:27.519Z,8.00
2018-06-01T16:25:56.452Z,11.00
2018-06-01T16:28:24.631Z,8.60
2018-06-01T16:30:52.827Z,9.20
2018-06-01T16:33:22.024Z,16.83
2018-06-01T16:35:50.201Z,9.03
2018-06-01T16:38:18.341Z,9.57
2018-06-01T16:40:47.321Z,15.27
2018-06-01T16:43:15.656Z,17.10
2018-06-01T16:45:44.602Z,10.60
2018-06-01T16:48:12.806Z,13.30
2018-06-01T16:50:40.974Z,10.33
2018-06-01T16:53:09.212Z,12.13
2018-06-01T16:55:37.386Z,15.57
2018-06-01T16:58:05.540Z,12.00
2018-06-01T17:00:33.702Z,10.40
2018-06-01T17:03:02.609Z,12.30
2018-06-01T17:05:32.890Z,13.60
2018-06-01T17:08:01.137Z,10.60
2018-06-01T17:10:30.937Z,9.67
2018-06-01T17:12:59.101Z,13.63
2018-06-01T17:15:27.323Z,12.40
2018-06-01T17:18:01.632Z,10.37
2018-06-01T17:20:30.584Z,11.33
2018-06-01T17:22:59.788Z,9.73
2018-06-01T17:25:28.038Z,15.67
2018-06-01T17:27:56.244Z,11.20
2018-06-01T17:30:24.427Z,10.97
2018-06-01T17:32:52.597Z,10.03
2018-06-01T17:35:22.057Z,10.93
2018-06-01T17:37:50.389Z,12.83
2018-06-01T17:40:18.534Z,11.10
2018-06-01T17:42:47.493Z,10.80
2018-06-01T17:45:15.664Z,11.20
2018-06-01T17:47:43.837Z,12.00
2018-06-01T17:50:12.753Z,11.17
2018-06-01T17:52:41.250Z,10.80
2018-06-01T17:55:10.340Z,17.77
2018-06-01T17:57:39.322Z,16.07
2018-06-01T18:00:07.625Z,10.63
2018-06-01T18:02:36.826Z,12.43
2018-06-01T18:05:06.752Z,9.97
2018-06-01T18:07:35.113Z,9.97
2018-06-01T18:10:05.130Z,11.87
2018-06-01T18:12:34.424Z,12.50
2018-06-01T18:15:03.115Z,9.30
2018-06-01T18:17:31.675Z,9.20
2018-06-01T18:19:59.877Z,12.10
2018-06-01T18:22:31.155Z,9.60
2018-06-01T18:25:01.361Z,12.67
2018-06-01T18:27:31.172Z,7.90
2018-06-01T18:29:59.441Z,11.00
2018-06-01T18:32:27.609Z,12.67
2018-06-01T18:34:55.780Z,9.00
2018-06-01T18:37:24.888Z,11.30
2018-06-01T18:39:53.050Z,8.67
2018-06-01T18:42:21.413Z,10.57
2018-06-01T18:44:52.200Z,8.73
2018-06-01T18:47:21.288Z,10.87
2018-06-01T18:49:49.500Z,10.13
2018-06-01T18:52:17.751Z,12.03
2018-06-01T18:54:45.936Z,9.53
2018-06-01T18:57:14.114Z,12.23
2018-06-01T18:59:42.297Z,7.17
2018-06-01T19:02:10.481Z,9.33
2018-06-01T19:04:39.336Z,9.80
2018-06-01T19:07:07.569Z,7.93
2018-06-01T19:09:35.753Z,8.70
2018-06-01T19:12:03.917Z,8.43
2018-06-01T19:14:32.086Z,9.23
2018-06-01T19:17:01.037Z,8.60
2018-06-01T19:19:29.241Z,9.07
2018-06-01T19:21:57.448Z,19.63
2018-06-01T19:24:26.421Z,32.00
2018-06-01T19:26:55.354Z,25.27
2018-06-01T19:29:25.825Z,24.30
2018-06-01T19:31:53.986Z,28.80
2018-06-01T19:34:22.180Z,34.90
2018-06-01T19:36:51.065Z,28.83
2018-06-01T19:39:19.298Z,28.00
2018-06-01T19:41:47.518Z,27.40
2018-06-01T19:44:15.740Z,29.83
2018-06-01T19:46:44.671Z,29.20
2018-06-01T19:49:45.640Z,26.70
2018-06-01T19:52:13.974Z,24.43
2018-06-01T19:54:42.191Z,19.20
2018-06-01T19:57:10.388Z,12.60
2018-06-01T19:59:38.578Z,15.93
2018-06-01T20:02:06.773Z,11.67
2018-06-01T20:04:35.013Z,11.73
2018-06-01T20:07:03.839Z,10.67
2018-06-01T20:09:33.907Z,10.43
2018-06-01T20:12:15.602Z,8.20
2018-06-01T20:14:44.670Z,11.50
2018-06-01T20:17:14.941Z,10.40
2018-06-01T20:19:43.163Z,9.90
2018-06-01T20:22:12.123Z,8.50
2018-06-01T20:24:40.298Z,8.67
2018-06-01T20:27:08.469Z,8.73
2018-06-01T20:29:36.713Z,15.50
2018-06-01T20:32:04.950Z,10.63
2018-06-01T20:34:33.219Z,8.63
2018-06-01T20:37:01.381Z,9.30
2018-06-01T20:39:29.568Z,10.67
2018-06-01T20:41:58.509Z,11.00
2018-06-01T20:44:26.698Z,11.23
2018-06-01T20:46:54.877Z,10.93
2018-06-01T20:49:23.272Z,11.07
2018-06-01T20:51:51.587Z,11.30
2018-06-01T20:54:19.772Z,11.30
2018-06-01T20:56:48.019Z,10.87
2018-06-01T20:59:16.183Z,17.47
2018-06-01T21:01:45.111Z,15.20
2018-06-01T21:04:13.318Z,13.20
2018-06-01T21:06:41.611Z,11.93
2018-06-01T21:09:09.800Z,13.67
2018-06-01T21:11:38.765Z,14.03
2018-06-01T21:14:06.963Z,13.83
2018-06-01T21:16:36.142Z,14.93
2018-06-01T21:19:04.487Z,15.90
2018-06-01T21:21:32.664Z,15.60
2018-06-01T21:24:05.946Z,15.67
2018-06-01T21:26:40.881Z,16.07
2018-06-01T21:29:10.493Z,16.03
2018-06-01T21:31:38.674Z,16.90
2018-06-01T21:34:08.591Z,20.10
2018-06-01T21:36:36.976Z,15.90
2018-06-01T21:39:05.894Z,24.10
2018-06-01T21:41:34.178Z,18.67
2018-06-01T21:44:02.391Z,17.43
2018-06-01T21:46:30.559Z,17.13
2018-06-01T21:48:58.742Z,18.60
2018-06-01T21:51:26.949Z,16.90
2018-06-01T21:53:55.105Z,19.17
2018-06-01T21:56:23.290Z,17.90
2018-06-01T21:58:51.461Z,18.27
2018-06-01T22:01:19.653Z,20.77
2018-06-01T22:03:47.828Z,18.50
2018-06-01T22:06:16.004Z,19.57
2018-06-01T22:08:44.169Z,20.97
2018-06-01T22:11:15.135Z,19.67
2018-06-01T22:13:43.358Z,18.23
2018-06-01T22:16:11.606Z,18.63
2018-06-01T22:18:40.579Z,17.97
2018-06-01T22:21:08.859Z,20.13
2018-06-01T22:23:37.491Z,19.93
2018-06-01T22:26:05.659Z,20.57
2018-06-01T22:28:33.848Z,22.07
2018-06-01T22:31:02.224Z,24.73
2018-06-01T22:33:33.209Z,25.20
2018-06-01T22:36:01.396Z,25.63
2018-06-01T22:38:29.571Z,26.93
2018-06-01T22:40:57.725Z,28.77
2018-06-01T22:43:25.932Z,27.90
2018-06-01T22:45:54.106Z,24.73
2018-06-01T22:48:22.833Z,25.97
2018-06-01T22:50:52.055Z,25.20
2018-06-01T22:53:20.282Z,24.87
2018-06-01T22:55:48.551Z,22.20
2018-06-01T22:58:17.574Z,21.30
2018-06-01T23:00:46.009Z,22.10
2018-06-01T23:03:15.067Z,22.73
2018-06-01T23:05:43.225Z,22.90
2018-06-01T23:08:12.171Z,25.17
2018-06-01T23:10:40.328Z,26.90
2018-06-01T23:13:08.626Z,27.70
2018-06-01T23:15:36.799Z,29.70
2018-06-01T23:18:12.786Z,26.30
2018-06-01T23:20:41.038Z,32.50
2018-06-01T23:23:09.295Z,30.77
2018-06-01T23:25:46.187Z,36.67
2018-06-01T23:28:21.354Z,37.47
2018-06-01T23:30:49.553Z,37.03
2018-06-01T23:38:49.967Z,32.10
2018-06-01T23:41:20.302Z,33.67
2018-06-01T23:43:48.489Z,40.67
2018-06-01T23:46:18.059Z,37.40
2018-06-01T23:48:47.496Z,42.10
2018-06-01T23:51:16.422Z,51.33
2018-06-01T23:53:44.609Z,40.83
2018-06-01T23:56:13.709Z,41.43
2018-06-01T23:58:42.321Z,23.47
